Time;durP1;ratioP1;P1;durP2;ratioP2;P2;SDS_P1;SDS_P2;PMS_P1;PMS_P2;Temp;Humidity;BMP_temperature;BMP_pressure;BME280_temperature;BME280_humidity;BME280_pressure;Samples;Min_cycle;Max_cycle;Signal;HPM_P1;HPM_P2
2023/05/26 00:01:20;;;;;;;19.23;4.05;;;9.10;99.90;;;;;;5110207;28;20035;-85
2023/05/26 00:03:48;;;;;;;16.30;3.20;;;9.20;99.90;;;;;;5110334;28;20049;-85
2023/05/26 00:06:15;;;;;;;22.60;3.63;;;9.10;99.90;;;;;;5110262;28;20099;-85
2023/05/26 00:08:41;;;;;;;18.40;4.07;;;9.10;99.90;;;;;;5110628;28;20054;-85
2023/05/26 00:11:07;;;;;;;15.40;3.40;;;9.10;99.90;;;;;;5111281;28;20507;-85
2023/05/26 00:13:33;;;;;;;21.95;3.15;;;9.10;99.90;;;;;;5114392;28;20097;-85
2023/05/26 00:16:00;;;;;;;13.45;2.58;;;9.10;99.90;;;;;;5114154;28;20054;-85
2023/05/26 00:18:26;;;;;;;19.55;4.10;;;9.10;99.90;;;;;;5113846;28;20404;-85
2023/05/26 00:20:52;;;;;;;16.42;2.80;;;9.10;99.90;;;;;;5096722;28;20148;-85
2023/05/26 00:23:18;;;;;;;16.10;3.08;;;9.00;99.90;;;;;;5113933;28;20054;-85
2023/05/26 00:25:44;;;;;;;17.88;2.80;;;9.00;99.90;;;;;;5113865;28;20044;-85
2023/05/26 00:28:09;;;;;;;15.15;3.40;;;8.90;99.90;;;;;;5115089;28;20151;-85
2023/05/26 00:30:35;;;;;;;14.73;2.97;;;8.90;99.90;;;;;;5113480;28;20552;-85
2023/05/26 00:33:00;;;;;;;16.90;3.03;;;8.90;99.90;;;;;;5096744;28;20047;-85
2023/05/26 00:35:26;;;;;;;17.48;4.22;;;8.90;99.90;;;;;;5113988;28;20447;-85
2023/05/26 00:37:52;;;;;;;15.07;2.97;;;8.80;99.90;;;;;;5113916;28;20043;-85
2023/05/26 00:40:18;;;;;;;15.50;3.78;;;8.80;99.90;;;;;;5113597;28;20052;-85
2023/05/26 00:42:43;;;;;;;16.17;2.72;;;8.80;99.90;;;;;;5113918;28;20118;-85
2023/05/26 00:45:12;;;;;;;17.25;3.42;;;8.80;99.90;;;;;;5113508;28;20445;-84
2023/05/26 00:47:38;;;;;;;14.57;2.95;;;8.70;99.90;;;;;;5113549;28;20046;-85
2023/05/26 00:50:04;;;;;;;20.45;2.75;;;8.70;99.90;;;;;;5113063;28;20035;-86
2023/05/26 00:52:32;;;;;;;16.45;2.85;;;8.60;99.90;;;;;;5113414;28;20527;-85
2023/05/26 00:54:59;;;;;;;15.27;3.00;;;8.50;99.90;;;;;;5113327;28;20085;-85
2023/05/26 00:57:27;;;;;;;13.93;3.10;;;8.40;99.90;;;;;;5113616;28;20046;-85
2023/05/26 00:59:55;;;;;;;16.42;2.88;;;8.40;99.90;;;;;;5114113;28;20059;-85
2023/05/26 01:02:22;;;;;;;15.48;3.22;;;8.30;99.90;;;;;;5113516;28;20439;-85
2023/05/26 01:04:52;;;;;;;15.55;2.95;;;8.20;99.90;;;;;;5113094;28;20496;-85
2023/05/26 01:07:18;;;;;;;15.57;2.83;;;8.20;99.90;;;;;;5114305;28;20043;-86
2023/05/26 01:09:44;;;;;;;13.02;3.00;;;8.10;99.90;;;;;;5112744;28;20039;-85
2023/05/26 01:12:15;;;;;;;12.30;3.38;;;8.00;99.90;;;;;;5112947;28;20043;-85
2023/05/26 01:14:45;;;;;;;18.08;2.20;;;8.00;99.90;;;;;;5113023;28;20092;-85
2023/05/26 01:17:18;;;;;;;15.57;3.13;;;8.00;99.90;;;;;;5112925;28;20513;-85
2023/05/26 01:20:19;;;;;;;14.38;2.53;;;8.00;99.90;;;;;;5112760;28;20082;-85
2023/05/26 01:22:51;;;;;;;15.75;2.50;;;8.00;99.90;;;;;;5113038;28;20050;-85
2023/05/26 01:25:48;;;;;;;15.50;3.15;;;8.00;99.90;;;;;;5112958;28;20140;-85
2023/05/26 01:28:20;;;;;;;12.73;3.25;;;8.00;99.90;;;;;;5112661;28;20051;-85
2023/05/26 01:30:48;;;;;;;14.25;2.75;;;8.00;99.90;;;;;;5112398;28;20131;-85
2023/05/26 01:33:14;;;;;;;15.85;2.85;;;8.00;99.90;;;;;;5112448;28;20047;-85
2023/05/26 01:35:39;;;;;;;10.23;2.45;;;7.90;99.90;;;;;;5112568;28;20046;-85
2023/05/26 01:38:07;;;;;;;13.20;2.83;;;7.90;99.90;;;;;;5112486;28;20044;-85
2023/05/26 01:40:33;;;;;;;16.17;3.35;;;7.90;99.90;;;;;;5112453;28;20189;-85
2023/05/26 01:43:28;;;;;;;17.52;2.72;;;7.90;99.90;;;;;;5112387;28;20046;-85
2023/05/26 01:46:05;;;;;;;16.50;2.92;;;7.90;99.90;;;;;;5113584;28;20105;-85
2023/05/26 01:48:33;;;;;;;12.70;2.67;;;7.80;99.90;;;;;;5112210;28;20069;-85
2023/05/26 01:51:01;;;;;;;18.15;2.55;;;7.80;99.90;;;;;;5112076;28;20485;-85
2023/05/26 01:53:35;;;;;;;17.50;3.50;;;7.80;99.90;;;;;;5112188;28;20050;-85
2023/05/26 01:56:02;;;;;;;13.65;2.75;;;7.80;99.90;;;;;;5113296;28;20052;-85
2023/05/26 01:58:28;;;;;;;15.23;3.58;;;7.70;99.90;;;;;;5113374;28;20416;-85
2023/05/26 02:00:54;;;;;;;22.65;4.05;;;7.70;99.90;;;;;;5111745;28;20504;-85
2023/05/26 02:03:20;;;;;;;11.45;2.60;;;7.60;99.90;;;;;;5111969;28;20067;-85
2023/05/26 02:05:46;;;;;;;17.70;2.85;;;7.60;99.90;;;;;;5112117;28;20047;-85
2023/05/26 02:08:12;;;;;;;13.48;2.88;;;7.60;99.90;;;;;;5111884;28;20408;-85
2023/05/26 02:10:39;;;;;;;18.17;2.88;;;7.50;99.90;;;;;;5094422;28;20043;-85
2023/05/26 02:13:05;;;;;;;13.02;2.70;;;7.50;99.90;;;;;;5111850;28;20092;-85
2023/05/26 02:15:31;;;;;;;13.15;2.63;;;7.40;99.90;;;;;;5111819;28;20052;-85
2023/05/26 02:17:57;;;;;;;17.60;3.03;;;7.30;99.90;;;;;;5111863;28;20151;-85
2023/05/26 02:20:26;;;;;;;14.02;2.65;;;7.30;99.90;;;;;;5111413;28;20074;-85
2023/05/26 02:22:52;;;;;;;8.80;2.33;;;7.30;99.90;;;;;;5111646;28;20097;-84
2023/05/26 02:25:19;;;;;;;15.27;3.65;;;7.30;99.90;;;;;;5111857;28;20050;-85
2023/05/26 02:27:44;;;;;;;15.63;2.80;;;7.20;99.90;;;;;;5111487;28;20051;-85
2023/05/26 02:30:10;;;;;;;15.70;2.67;;;7.20;99.90;;;;;;5111242;28;20031;-85
2023/05/26 02:32:36;;;;;;;18.27;3.17;;;7.20;99.90;;;;;;5112728;28;20050;-85
2023/05/26 02:35:05;;;;;;;12.77;2.63;;;7.20;99.90;;;;;;5110919;28;20039;-85
2023/05/26 02:37:31;;;;;;;14.05;2.92;;;7.20;99.90;;;;;;5111428;28;20039;-85
2023/05/26 02:39:57;;;;;;;14.43;3.33;;;7.10;99.90;;;;;;5112235;28;20401;-85
2023/05/26 02:42:23;;;;;;;12.18;2.22;;;7.10;99.90;;;;;;5111296;28;20047;-85
2023/05/26 02:44:48;;;;;;;18.52;3.28;;;7.10;99.90;;;;;;5094353;28;20043;-85
2023/05/26 02:47:14;;;;;;;9.95;2.83;;;7.10;99.90;;;;;;5111240;28;20435;-85
2023/05/26 02:49:42;;;;;;;13.80;3.45;;;7.00;99.90;;;;;;5110857;28;20513;-85
2023/05/26 02:52:08;;;;;;;10.35;2.22;;;7.00;99.90;;;;;;5111195;28;20043;-85
2023/05/26 02:54:34;;;;;;;11.25;2.10;;;7.00;99.90;;;;;;5110934;28;20446;-85
2023/05/26 02:56:59;;;;;;;15.80;4.25;;;6.90;99.90;;;;;;5111037;28;20048;-85
2023/05/26 02:59:25;;;;;;;18.98;3.15;;;6.90;99.90;;;;;;5110933;28;20039;-85
2023/05/26 03:01:51;;;;;;;14.95;2.55;;;6.90;99.90;;;;;;5110899;28;20055;-86
2023/05/26 03:04:16;;;;;;;17.17;2.72;;;6.80;99.90;;;;;;5111372;28;20124;-86
2023/05/26 03:06:42;;;;;;;18.48;3.22;;;6.80;99.90;;;;;;5094175;28;20075;-85
2023/05/26 03:09:08;;;;;;;11.05;2.55;;;6.80;99.90;;;;;;5110770;28;20609;-85
2023/05/26 03:11:34;;;;;;;16.33;3.65;;;6.70;99.90;;;;;;5110588;28;20031;-85
2023/05/26 03:14:00;;;;;;;9.30;2.55;;;6.70;99.90;;;;;;5111113;28;20038;-85
2023/05/26 03:16:26;;;;;;;12.32;2.40;;;6.70;99.90;;;;;;5110786;28;20043;-85
2023/05/26 03:18:51;;;;;;;18.73;2.88;;;6.70;99.90;;;;;;5111942;28;20040;-85
2023/05/26 03:21:18;;;;;;;14.68;2.42;;;6.70;99.90;;;;;;5110560;28;20374;-85
2023/05/26 03:23:43;;;;;;;10.77;2.30;;;6.60;99.90;;;;;;5110740;28;20055;-85
2023/05/26 03:26:10;;;;;;;12.18;2.53;;;6.60;99.90;;;;;;5112018;28;20043;-86
2023/05/26 03:28:36;;;;;;;15.38;2.65;;;6.60;99.90;;;;;;5110703;28;20489;-85
2023/05/26 03:31:02;;;;;;;11.40;2.33;;;6.60;99.90;;;;;;5110689;28;20046;-85
2023/05/26 03:33:28;;;;;;;10.20;2.47;;;6.50;99.90;;;;;;5110793;28;20450;-85
2023/05/26 03:35:54;;;;;;;13.20;3.33;;;6.50;99.90;;;;;;5110716;28;20058;-85
2023/05/26 03:38:20;;;;;;;11.40;2.30;;;6.50;99.90;;;;;;5110559;28;20036;-85
2023/05/26 03:40:46;;;;;;;15.30;3.22;;;6.50;99.90;;;;;;5110368;28;20051;-85
2023/05/26 03:43:11;;;;;;;13.48;3.15;;;6.40;99.90;;;;;;5110647;28;20102;-85
2023/05/26 03:45:37;;;;;;;13.95;3.00;;;6.40;99.90;;;;;;5110822;28;20043;-85
2023/05/26 03:48:03;;;;;;;9.30;2.47;;;6.40;99.90;;;;;;5113541;28;20528;-85
2023/05/26 03:50:28;;;;;;;11.75;2.72;;;6.30;99.90;;;;;;5115674;28;20127;-85
2023/05/26 03:52:54;;;;;;;8.10;2.40;;;6.30;99.90;;;;;;5097450;28;20035;-85
2023/05/26 03:55:20;;;;;;;11.48;2.65;;;6.30;99.90;;;;;;5114848;28;20038;-85
2023/05/26 03:57:45;;;;;;;11.43;2.25;;;6.30;99.90;;;;;;5114774;28;20681;-85
2023/05/26 04:00:12;;;;;;;12.77;2.75;;;6.30;99.90;;;;;;5114399;28;20096;-85
2023/05/26 04:02:37;;;;;;;9.15;1.98;;;6.30;99.90;;;;;;5114703;28;20082;-85
2023/05/26 04:05:03;;;;;;;10.00;2.08;;;6.20;99.90;;;;;;5114602;28;20067;-85
2023/05/26 04:07:29;;;;;;;11.10;2.45;;;6.20;99.90;;;;;;5115433;28;20493;-85
2023/05/26 04:09:54;;;;;;;13.80;3.08;;;6.20;99.90;;;;;;5115151;28;20497;-85
2023/05/26 04:12:20;;;;;;;10.50;2.40;;;6.20;99.90;;;;;;5115612;28;20035;-85
2023/05/26 04:14:46;;;;;;;13.00;2.70;;;6.30;99.90;;;;;;5114101;28;20408;-85
2023/05/26 04:17:11;;;;;;;13.15;2.58;;;6.30;99.90;;;;;;5114407;28;20177;-85
2023/05/26 04:19:37;;;;;;;11.38;2.60;;;6.30;99.90;;;;;;5113863;28;20511;-85
2023/05/26 04:22:03;;;;;;;12.77;3.00;;;6.40;99.90;;;;;;5113987;28;20055;-85
2023/05/26 04:24:28;;;;;;;15.35;3.47;;;6.40;99.90;;;;;;5114229;28;20045;-85
2023/05/26 04:26:54;;;;;;;16.05;2.80;;;6.40;99.90;;;;;;5113911;28;20493;-85
2023/05/26 04:29:20;;;;;;;13.90;2.70;;;6.40;99.90;;;;;;5114952;28;20040;-85
2023/05/26 04:31:46;;;;;;;13.10;2.95;;;6.40;99.90;;;;;;5114670;28;20074;-85
2023/05/26 04:34:12;;;;;;;12.32;2.83;;;6.40;99.90;;;;;;5114036;28;20054;-85
2023/05/26 04:36:38;;;;;;;11.43;2.47;;;6.40;99.90;;;;;;5114062;28;20039;-85
2023/05/26 04:39:04;;;;;;;11.57;2.90;;;6.40;99.90;;;;;;5113897;28;20571;-85
2023/05/26 04:41:29;;;;;;;16.45;2.97;;;6.40;99.90;;;;;;5114611;28;20043;-85
2023/05/26 04:43:55;;;;;;;13.38;3.75;;;6.50;99.90;;;;;;5113601;28;20480;-85
2023/05/26 04:46:21;;;;;;;18.23;3.88;;;6.50;99.90;;;;;;5113440;28;20043;-85
2023/05/26 04:48:47;;;;;;;10.80;2.90;;;6.50;99.90;;;;;;5113380;28;20371;-85
2023/05/26 04:51:12;;;;;;;16.23;2.92;;;6.60;99.90;;;;;;5114419;28;20050;-85
2023/05/26 04:53:38;;;;;;;11.02;2.58;;;6.60;99.90;;;;;;5114640;28;20051;-85
2023/05/26 04:56:05;;;;;;;12.43;2.35;;;6.70;99.90;;;;;;5114620;28;20397;-85
2023/05/26 04:58:32;;;;;;;12.48;2.70;;;6.70;99.90;;;;;;5112737;28;20047;-85
2023/05/26 05:00:58;;;;;;;13.90;2.30;;;6.70;99.90;;;;;;5112878;28;20040;-85
2023/05/26 05:03:24;;;;;;;14.48;3.22;;;6.80;99.90;;;;;;5113170;28;20051;-85
2023/05/26 05:05:50;;;;;;;15.90;2.63;;;6.80;99.90;;;;;;5113141;28;20054;-85
2023/05/26 05:08:16;;;;;;;10.90;2.40;;;6.80;99.90;;;;;;5113087;28;20043;-85
2023/05/26 05:10:41;;;;;;;13.98;2.45;;;6.90;99.90;;;;;;5112978;28;20043;-85
2023/05/26 05:13:07;;;;;;;11.02;2.97;;;6.90;99.90;;;;;;5112922;28;20031;-85
2023/05/26 05:15:32;;;;;;;18.73;3.33;;;7.00;99.90;;;;;;5113021;28;20046;-85
2023/05/26 05:17:58;;;;;;;12.88;3.58;;;7.10;99.90;;;;;;5113002;28;20051;-85
2023/05/26 05:20:26;;;;;;;14.70;3.42;;;7.10;99.90;;;;;;5113941;28;20074;-85
2023/05/26 05:22:53;;;;;;;13.95;2.72;;;7.20;99.90;;;;;;5114187;28;20035;-85
2023/05/26 05:25:18;;;;;;;12.27;3.33;;;7.20;99.90;;;;;;5113126;28;20074;-85
2023/05/26 05:27:44;;;;;;;11.48;3.28;;;7.30;99.90;;;;;;5112702;28;20516;-85
2023/05/26 05:30:11;;;;;;;17.00;4.55;;;7.40;99.90;;;;;;5095080;28;20523;-85
2023/05/26 05:32:37;;;;;;;18.48;3.60;;;7.50;99.90;;;;;;5112670;28;20485;-86
2023/05/26 05:35:03;;;;;;;17.67;4.35;;;7.60;99.90;;;;;;5112573;28;20048;-86
2023/05/26 05:37:29;;;;;;;13.30;3.20;;;7.70;99.90;;;;;;5112595;28;20047;-85
2023/05/26 05:39:54;;;;;;;17.23;4.10;;;7.70;99.90;;;;;;5112301;28;20047;-85
2023/05/26 05:42:21;;;;;;;20.63;3.17;;;7.80;99.90;;;;;;5112427;28;20127;-86
2023/05/26 05:44:47;;;;;;;18.02;3.70;;;7.90;99.90;;;;;;5112400;28;20051;-85
2023/05/26 05:47:13;;;;;;;15.63;3.97;;;8.00;99.90;;;;;;5112446;28;20039;-85
2023/05/26 05:49:38;;;;;;;16.75;3.85;;;8.10;99.90;;;;;;5111929;28;20546;-85
2023/05/26 05:52:04;;;;;;;16.20;4.25;;;8.20;99.90;;;;;;5112320;28;20042;-85
2023/05/26 05:54:30;;;;;;;20.02;4.40;;;8.30;99.90;;;;;;5112387;28;20043;-85
2023/05/26 05:56:55;;;;;;;21.73;4.28;;;8.40;99.90;;;;;;5112147;28;20573;-85
2023/05/26 05:59:21;;;;;;;14.65;3.75;;;8.60;99.90;;;;;;5112059;28;20096;-85
2023/05/26 06:01:47;;;;;;;19.20;3.97;;;8.70;99.90;;;;;;5111875;28;20061;-86
2023/05/26 06:04:12;;;;;;;17.58;3.75;;;8.80;99.90;;;;;;5112260;28;20051;-86
2023/05/26 06:06:38;;;;;;;17.73;3.15;;;8.90;99.90;;;;;;5111825;28;20075;-86
2023/05/26 06:09:04;;;;;;;22.02;4.47;;;9.00;99.90;;;;;;5111018;28;20409;-86
2023/05/26 06:11:29;;;;;;;22.02;4.38;;;9.20;99.90;;;;;;5112678;28;20039;-86
2023/05/26 06:13:55;;;;;;;21.08;3.45;;;9.30;99.90;;;;;;5111867;28;20488;-86
2023/05/26 06:16:20;;;;;;;19.42;4.53;;;9.40;99.90;;;;;;5111794;28;20044;-86
2023/05/26 06:18:46;;;;;;;18.17;3.60;;;9.50;99.90;;;;;;5112903;28;20031;-86
2023/05/26 06:21:11;;;;;;;21.55;3.78;;;9.60;99.90;;;;;;5111446;28;20071;-86
2023/05/26 06:23:37;;;;;;;26.48;4.22;;;9.70;99.90;;;;;;5111803;28;20035;-86
2023/05/26 06:26:03;;;;;;;22.35;4.35;;;9.90;99.90;;;;;;5111374;28;20488;-86
2023/05/26 06:28:28;;;;;;;23.27;4.47;;;10.00;99.90;;;;;;5111757;28;20067;-85
2023/05/26 06:30:54;;;;;;;19.50;3.33;;;10.10;99.90;;;;;;5111050;28;20040;-86
2023/05/26 06:33:19;;;;;;;20.40;4.18;;;10.20;99.90;;;;;;5111748;28;20031;-86
2023/05/26 06:35:45;;;;;;;17.77;3.90;;;10.30;99.90;;;;;;5111454;28;20448;-86
2023/05/26 06:38:11;;;;;;;18.38;3.95;;;10.40;99.90;;;;;;5111360;28;20036;-86
2023/05/26 06:40:36;;;;;;;23.48;4.10;;;10.50;99.90;;;;;;5111355;28;20112;-86
2023/05/26 06:43:02;;;;;;;18.60;4.07;;;10.60;99.90;;;;;;5117604;27;20058;-85
2023/05/26 06:45:27;;;;;;;18.80;3.35;;;10.70;99.90;;;;;;5124159;27;20388;-86
2023/05/26 06:47:53;;;;;;;17.70;3.65;;;10.90;99.90;;;;;;5114500;27;20492;-86
2023/05/26 06:50:19;;;;;;;23.05;3.03;;;11.00;99.90;;;;;;5114229;27;20035;-86
2023/05/26 06:52:44;;;;;;;21.25;3.45;;;11.10;99.90;;;;;;5132954;27;20027;-86
2023/05/26 06:55:10;;;;;;;19.83;4.35;;;11.20;99.90;;;;;;5114545;27;20080;-86
2023/05/26 06:57:36;;;;;;;20.42;3.85;;;11.30;99.90;;;;;;5114580;27;20095;-86
2023/05/26 07:00:02;;;;;;;16.42;3.75;;;11.40;99.90;;;;;;5097270;28;20111;-86
2023/05/26 07:02:28;;;;;;;19.77;4.40;;;11.60;99.90;;;;;;5114765;27;20051;-86
2023/05/26 07:04:54;;;;;;;18.80;3.42;;;11.70;99.90;;;;;;5114188;27;20043;-86
2023/05/26 07:07:19;;;;;;;20.77;3.95;;;11.80;99.90;;;;;;5114397;28;20047;-86
2023/05/26 07:09:45;;;;;;;22.15;4.40;;;11.80;99.90;;;;;;5114288;27;20540;-86
2023/05/26 07:12:11;;;;;;;16.95;3.70;;;11.90;99.90;;;;;;5097407;27;20493;-86
2023/05/26 07:14:37;;;;;;;22.73;4.20;;;12.00;99.90;;;;;;5114323;28;20039;-86
2023/05/26 07:17:03;;;;;;;18.83;3.33;;;12.00;99.90;;;;;;5097355;28;20054;-86
2023/05/26 07:19:28;;;;;;;20.50;3.63;;;12.10;99.90;;;;;;5113817;28;20070;-86
2023/05/26 07:21:54;;;;;;;13.35;3.28;;;12.20;99.90;;;;;;5117389;27;20166;-86
2023/05/26 07:24:20;;;;;;;18.20;2.92;;;12.40;99.90;;;;;;5118595;27;20095;-86
2023/05/26 07:26:45;;;;;;;18.30;3.78;;;12.40;99.90;;;;;;5118526;27;20038;-86
2023/05/26 07:29:11;;;;;;;25.40;7.65;;;12.50;99.90;;;;;;5118717;27;20075;-86
2023/05/26 07:31:36;;;;;;;18.58;3.90;;;12.70;99.90;;;;;;5117915;27;20400;-86
2023/05/26 07:34:02;;;;;;;16.42;3.10;;;12.80;99.90;;;;;;5118704;27;20043;-86
2023/05/26 07:36:28;;;;;;;22.65;3.65;;;12.90;99.90;;;;;;5118391;27;20050;-87
2023/05/26 07:38:53;;;;;;;23.17;4.32;;;13.00;99.90;;;;;;5118201;27;20049;-86
2023/05/26 07:41:19;;;;;;;25.90;7.60;;;13.10;99.90;;;;;;5117998;27;20121;-86
2023/05/26 07:43:45;;;;;;;21.90;4.35;;;13.20;99.90;;;;;;5118238;27;20118;-86
2023/05/26 07:46:11;;;;;;;15.82;3.83;;;13.40;99.90;;;;;;5117986;27;20043;-86
2023/05/26 07:48:36;;;;;;;23.42;6.75;;;13.50;99.90;;;;;;5118052;27;20055;-86
2023/05/26 07:51:02;;;;;;;23.95;6.57;;;13.50;99.90;;;;;;5117724;27;20162;-86
2023/05/26 07:53:28;;;;;;;17.02;3.20;;;13.60;97.70;;;;;;5132716;27;20028;-86
2023/05/26 07:55:54;;;;;;;20.55;3.80;;;13.60;98.30;;;;;;5115866;28;20549;-86
2023/05/26 07:58:19;;;;;;;16.35;3.75;;;13.60;99.30;;;;;;5097467;28;20545;-87
2023/05/26 08:00:45;;;;;;;23.63;6.50;;;13.60;99.60;;;;;;5097385;28;20040;-86
2023/05/26 08:03:10;;;;;;;17.23;3.35;;;13.70;99.10;;;;;;5097667;28;20493;-86
2023/05/26 08:05:36;;;;;;;18.08;3.78;;;13.80;98.20;;;;;;5097401;28;20038;-86
2023/05/26 08:08:02;;;;;;;22.70;5.95;;;13.80;97.60;;;;;;5097315;28;20122;-86
2023/05/26 08:10:27;;;;;;;17.60;4.13;;;13.90;95.20;;;;;;5096947;28;20169;-86
2023/05/26 08:12:53;;;;;;;20.88;4.38;;;13.90;95.00;;;;;;5097270;28;20483;-86
2023/05/26 08:15:24;;;;;;;20.50;4.45;;;13.90;94.60;;;;;;5097089;28;20046;-86
2023/05/26 08:17:49;;;;;;;20.77;4.07;;;14.00;95.20;;;;;;5097274;28;20050;-85
2023/05/26 08:20:15;;;;;;;24.48;6.70;;;14.10;95.40;;;;;;5096867;28;20055;-86
2023/05/26 08:22:41;;;;;;;18.65;3.38;;;14.30;94.80;;;;;;5096927;28;20043;-87
2023/05/26 08:25:07;;;;;;;19.75;4.72;;;14.30;94.80;;;;;;5096998;28;20093;-86
2023/05/26 08:27:32;;;;;;;19.30;5.57;;;14.30;94.70;;;;;;5096955;28;20050;-86
2023/05/26 08:29:58;;;;;;;20.33;5.90;;;14.40;92.90;;;;;;5096419;28;20538;-86
2023/05/26 08:32:24;;;;;;;19.17;3.58;;;14.50;91.90;;;;;;5095025;28;20070;-86
2023/05/26 08:34:50;;;;;;;19.67;5.47;;;14.50;91.80;;;;;;5096730;28;20401;-86
2023/05/26 08:37:17;;;;;;;18.60;3.25;;;14.60;91.00;;;;;;5096938;28;20450;-86
2023/05/26 08:39:42;;;;;;;14.68;3.35;;;14.60;91.00;;;;;;5096287;28;20079;-86
2023/05/26 08:42:14;;;;;;;17.08;3.70;;;14.70;91.00;;;;;;5096674;28;20074;-86
2023/05/26 08:44:42;;;;;;;24.45;4.68;;;14.70;89.90;;;;;;5096972;28;20051;-86
2023/05/26 08:47:11;;;;;;;20.08;5.93;;;14.70;89.20;;;;;;5096513;28;20044;-86
2023/05/26 08:49:41;;;;;;;19.77;5.60;;;14.80;86.90;;;;;;5096093;28;20044;-86
2023/05/26 08:52:16;;;;;;;18.52;5.72;;;14.90;85.40;;;;;;5096560;28;20040;-86
2023/05/26 08:54:43;;;;;;;16.63;3.42;;;15.00;84.90;;;;;;5096396;28;20043;-86
2023/05/26 08:57:11;;;;;;;19.48;4.13;;;15.00;85.80;;;;;;5096650;28;20039;-86
2023/05/26 08:59:41;;;;;;;20.48;5.93;;;15.00;86.10;;;;;;5095987;28;20164;-86
2023/05/26 09:02:08;;;;;;;16.10;4.75;;;15.10;84.00;;;;;;5079388;28;20097;-86
2023/05/26 09:04:34;;;;;;;18.30;3.72;;;15.20;83.30;;;;;;5114433;28;20044;-86
2023/05/26 09:06:59;;;;;;;16.83;4.90;;;15.20;83.60;;;;;;5096274;28;20044;-86
2023/05/26 09:09:25;;;;;;;15.73;3.05;;;15.30;82.40;;;;;;5095910;28;20114;-86
2023/05/26 09:11:51;;;;;;;14.02;3.67;;;15.40;82.40;;;;;;5095968;28;20097;-86
2023/05/26 09:14:20;;;;;;;18.90;4.55;;;15.40;82.50;;;;;;5114327;28;20081;-86
2023/05/26 09:16:46;;;;;;;18.65;5.30;;;15.40;81.70;;;;;;5096282;28;20043;-86
2023/05/26 09:19:17;;;;;;;21.08;5.47;;;15.50;80.30;;;;;;5114086;28;20036;-86
2023/05/26 09:21:50;;;;;;;16.90;4.10;;;15.50;79.60;;;;;;5095602;28;20114;-86
2023/05/26 09:24:17;;;;;;;16.42;3.92;;;15.50;80.00;;;;;;5095777;28;20044;-86
2023/05/26 09:26:48;;;;;;;16.50;5.13;;;15.50;80.60;;;;;;5095743;28;20047;-86
2023/05/26 09:29:15;;;;;;;18.02;5.68;;;15.70;80.10;;;;;;5113910;28;20095;-86
2023/05/26 09:31:42;;;;;;;18.17;5.55;;;15.80;79.80;;;;;;5113243;28;20108;-86
2023/05/26 09:34:09;;;;;;;19.00;5.20;;;15.90;79.20;;;;;;5095608;28;20462;-87
2023/05/26 09:36:36;;;;;;;22.25;6.00;;;16.00;79.10;;;;;;5113901;28;20092;-86
2023/05/26 09:39:07;;;;;;;21.75;6.15;;;16.10;78.40;;;;;;5095496;28;20047;-86
2023/05/26 09:41:36;;;;;;;14.85;3.88;;;16.20;78.10;;;;;;5113567;28;20418;-86
2023/05/26 09:44:12;;;;;;;19.17;5.15;;;16.30;78.60;;;;;;5095336;28;20082;-86
2023/05/26 09:46:39;;;;;;;18.83;5.13;;;16.40;76.80;;;;;;5078658;28;20122;-86
2023/05/26 09:49:09;;;;;;;17.95;4.50;;;16.50;76.30;;;;;;5095275;28;20044;-86
2023/05/26 09:51:36;;;;;;;19.85;5.95;;;16.50;75.10;;;;;;5094946;28;20118;-87
2023/05/26 09:54:02;;;;;;;16.00;4.88;;;16.60;75.20;;;;;;5095535;28;20067;-87
2023/05/26 09:56:36;;;;;;;14.98;5.15;;;16.70;74.40;;;;;;5095471;28;20437;-86
2023/05/26 09:59:06;;;;;;;16.73;5.18;;;16.70;73.20;;;;;;5095380;28;20119;-86
2023/05/26 10:01:39;;;;;;;15.05;4.95;;;16.80;73.00;;;;;;5094851;28;20103;-87
2023/05/26 10:04:09;;;;;;;16.08;5.15;;;16.80;72.80;;;;;;5095195;28;20123;-86
2023/05/26 10:06:38;;;;;;;15.18;4.82;;;16.90;72.00;;;;;;5094812;28;20051;-85
2023/05/26 10:09:06;;;;;;;19.77;5.32;;;17.00;71.10;;;;;;5094882;28;20365;-86
2023/05/26 10:11:36;;;;;;;14.35;3.25;;;17.00;70.70;;;;;;5093762;28;20050;-87
2023/05/26 10:14:02;;;;;;;16.58;4.55;;;17.10;71.00;;;;;;5076583;28;20663;-86
2023/05/26 10:16:29;;;;;;;14.57;4.57;;;17.10;69.90;;;;;;5093469;28;20043;-87
2023/05/26 10:18:54;;;;;;;15.95;4.65;;;17.20;69.10;;;;;;5093102;28;20118;-87
2023/05/26 10:21:26;;;;;;;17.33;4.80;;;17.20;69.10;;;;;;5093061;28;20118;-87
2023/05/26 10:24:02;;;;;;;14.90;3.93;;;17.30;68.30;;;;;;5093362;28;20048;-87
2023/05/26 10:27:05;;;;;;;14.98;4.28;;;17.30;67.80;;;;;;5112087;28;20046;-87
2023/05/26 10:29:44;;;;;;;;;;;17.40;67.90;;;;;;5010013;28;20050;-87
2023/05/26 10:32:42;;;;;;;17.58;4.43;;;17.30;67.90;;;;;;5102055;28;19915;-87
2023/05/26 10:35:25;;;;;;;15.50;4.60;;;17.40;67.80;;;;;;5094305;28;20096;-87
2023/05/26 10:38:10;;;;;;;17.40;4.20;;;17.50;66.90;;;;;;5094423;28;20043;-86
2023/05/26 10:40:37;;;;;;;15.32;4.35;;;17.50;66.70;;;;;;5094458;28;20123;-87
2023/05/26 10:43:23;;;;;;;17.48;4.63;;;17.60;66.80;;;;;;5094376;28;20075;-87
2023/05/26 10:46:00;;;;;;;13.63;4.43;;;17.70;66.40;;;;;;5094619;28;20401;-87
2023/05/26 10:48:38;;;;;;;16.70;4.78;;;17.80;65.40;;;;;;5094055;28;20044;-87
2023/05/26 10:51:05;;;;;;;15.07;4.15;;;17.90;65.50;;;;;;5093984;28;20046;-87
2023/05/26 10:53:36;;;;;;;17.15;4.70;;;17.90;65.50;;;;;;5094150;28;20092;-87
2023/05/26 10:56:04;;;;;;;13.85;4.05;;;18.00;65.30;;;;;;5093817;28;20047;-87
2023/05/26 10:58:32;;;;;;;16.48;4.07;;;18.00;65.40;;;;;;5094088;28;20492;-87
2023/05/26 11:01:12;;;;;;;13.18;4.32;;;18.20;65.30;;;;;;5112107;28;20035;-87
2023/05/26 11:03:45;;;;;;;15.10;4.20;;;18.30;64.60;;;;;;5094104;28;20043;-87
2023/05/26 11:06:16;;;;;;;14.18;4.75;;;18.40;65.20;;;;;;5094021;28;20079;-87
2023/05/26 11:08:46;;;;;;;12.90;4.25;;;18.50;65.70;;;;;;5077139;28;20035;-87
2023/05/26 11:11:14;;;;;;;17.58;4.88;;;18.70;65.00;;;;;;5111755;28;20035;-87
2023/05/26 11:13:48;;;;;;;13.25;3.90;;;18.70;63.50;;;;;;5112212;28;20050;-87
2023/05/26 11:16:25;;;;;;;14.85;4.50;;;18.80;63.70;;;;;;5094270;28;20380;-87
2023/05/26 11:18:57;;;;;;;17.05;4.40;;;18.80;63.60;;;;;;5119978;28;20042;-87
2023/05/26 11:21:25;;;;;;;13.85;4.57;;;18.90;62.40;;;;;;5103626;28;20035;-87
2023/05/26 11:23:52;;;;;;;15.77;4.53;;;18.90;63.20;;;;;;5102450;28;20049;-87
2023/05/26 11:26:18;;;;;;;13.48;3.90;;;19.00;62.90;;;;;;5111436;28;20104;-87
2023/05/26 11:28:45;;;;;;;15.05;4.10;;;19.00;62.80;;;;;;5114217;28;20496;-87
2023/05/26 11:31:16;;;;;;;14.95;3.85;;;19.10;63.20;;;;;;5112919;28;20039;-87
2023/05/26 11:33:43;;;;;;;15.23;4.38;;;19.30;62.10;;;;;;5114056;28;20083;-87
2023/05/26 11:36:09;;;;;;;15.80;4.20;;;19.40;62.70;;;;;;5114097;28;20054;-87
2023/05/26 11:38:37;;;;;;;13.75;4.35;;;19.60;62.60;;;;;;5132427;28;20043;-87
2023/05/26 11:41:06;;;;;;;15.85;4.30;;;19.60;62.20;;;;;;5113744;28;20570;-86
2023/05/26 11:43:32;;;;;;;16.55;4.07;;;19.70;61.70;;;;;;5113963;28;20452;-87
2023/05/26 11:46:02;;;;;;;17.30;4.63;;;19.80;62.00;;;;;;5132339;28;20050;-87
2023/05/26 11:48:41;;;;;;;16.30;4.55;;;19.80;60.80;;;;;;5113704;28;20131;-87
2023/05/26 11:51:17;;;;;;;15.57;4.50;;;19.90;60.10;;;;;;5132259;28;20034;-87
2023/05/26 11:53:45;;;;;;;16.60;4.57;;;19.90;60.00;;;;;;5114034;28;20039;-87
2023/05/26 11:56:15;;;;;;;13.05;3.67;;;20.00;60.30;;;;;;5113928;28;20046;-87
2023/05/26 11:58:55;;;;;;;13.77;4.43;;;20.10;59.50;;;;;;5114076;28;20050;-88
2023/05/26 12:01:25;;;;;;;13.18;3.78;;;20.20;59.70;;;;;;5113671;28;20047;-87
2023/05/26 12:03:51;;;;;;;12.43;3.65;;;20.20;59.60;;;;;;5113839;28;20419;-87
2023/05/26 12:06:24;;;;;;;12.98;4.18;;;20.30;60.20;;;;;;5132230;28;20039;-87
2023/05/26 12:08:52;;;;;;;14.38;4.40;;;20.40;60.00;;;;;;5116490;27;20389;-87
2023/05/26 12:11:20;;;;;;;15.52;4.28;;;20.50;60.00;;;;;;5117467;27;20043;-87
2023/05/26 12:13:47;;;;;;;13.65;4.07;;;20.60;60.00;;;;;;5117992;27;20118;-87
2023/05/26 12:16:34;;;;;;;13.80;4.18;;;20.60;58.90;;;;;;5117652;27;20051;-87
2023/05/26 12:19:03;;;;;;;13.95;3.88;;;20.80;60.00;;;;;;5117362;27;20504;-87
2023/05/26 12:21:30;;;;;;;13.63;4.35;;;20.90;59.80;;;;;;5117115;27;20043;-87
2023/05/26 12:23:57;;;;;;;12.25;3.60;;;21.10;59.00;;;;;;5117443;27;20043;-87
2023/05/26 12:26:27;;;;;;;14.95;4.50;;;21.20;58.50;;;;;;5135723;27;20043;-87
2023/05/26 12:29:11;;;;;;;15.90;4.43;;;21.30;57.80;;;;;;5117346;27;20043;-87
2023/05/26 12:31:48;;;;;;;15.25;4.13;;;21.40;58.00;;;;;;5116736;27;20118;-87
2023/05/26 12:34:25;;;;;;;12.95;3.85;;;21.50;58.50;;;;;;5117253;27;20076;-87
2023/05/26 12:36:51;;;;;;;13.75;4.15;;;21.50;56.50;;;;;;5117298;27;20043;-87
2023/05/26 12:39:18;;;;;;;14.75;4.28;;;21.50;56.70;;;;;;5117071;27;20046;-87
2023/05/26 12:41:47;;;;;;;14.40;4.93;;;21.60;57.30;;;;;;5116921;27;20115;-88
2023/05/26 12:44:14;;;;;;;15.27;4.85;;;21.70;56.90;;;;;;5116937;27;20042;-87
2023/05/26 12:46:41;;;;;;;15.20;4.60;;;21.70;56.90;;;;;;5117096;27;20054;-87